sensor_id;sensor_type;location;lat;lon;timestamp;P1;durP1;ratioP1;P2;durP2;ratioP2
40609;SDS011;26316;55.976;37.140;2023-09-19T00:04:07;20.15;;;10.95;;
40609;SDS011;26316;55.976;37.140;2023-09-19T00:06:36;16.98;;;10.27;;
40609;SDS011;26316;55.976;37.140;2023-09-19T00:09:03;14.77;;;10.45;;
40609;SDS011;26316;55.976;37.140;2023-09-19T00:11:29;13.20;;;10.20;;
40609;SDS011;26316;55.976;37.140;2023-09-19T00:13:56;16.92;;;9.98;;
40609;SDS011;26316;55.976;37.140;2023-09-19T00:16:25;14.30;;;9.75;;
40609;SDS011;26316;55.976;37.140;2023-09-19T00:18:51;15.77;;;9.18;;
40609;SDS011;26316;55.976;37.140;2023-09-19T00:21:18;14.02;;;9.20;;
40609;SDS011;26316;55.976;37.140;2023-09-19T00:23:44;11.23;;;9.25;;
40609;SDS011;26316;55.976;37.140;2023-09-19T00:26:10;9.65;;;8.02;;
40609;SDS011;26316;55.976;37.140;2023-09-19T00:28:37;16.55;;;8.57;;
40609;SDS011;26316;55.976;37.140;2023-09-19T00:31:03;11.98;;;8.00;;
40609;SDS011;26316;55.976;37.140;2023-09-19T00:33:31;14.35;;;7.93;;
40609;SDS011;26316;55.976;37.140;2023-09-19T00:35:56;11.85;;;8.07;;
40609;SDS011;26316;55.976;37.140;2023-09-19T00:38:23;9.23;;;7.05;;
40609;SDS011;26316;55.976;37.140;2023-09-19T00:40:53;8.85;;;7.07;;
40609;SDS011;26316;55.976;37.140;2023-09-19T00:43:20;9.90;;;7.25;;
40609;SDS011;26316;55.976;37.140;2023-09-19T00:45:48;8.15;;;7.35;;
40609;SDS011;26316;55.976;37.140;2023-09-19T00:48:16;8.13;;;7.32;;
40609;SDS011;26316;55.976;37.140;2023-09-19T00:50:45;10.38;;;6.72;;
40609;SDS011;26316;55.976;37.140;2023-09-19T00:53:18;7.55;;;6.53;;
40609;SDS011;26316;55.976;37.140;2023-09-19T00:55:46;11.75;;;6.85;;
40609;SDS011;26316;55.976;37.140;2023-09-19T00:58:12;9.52;;;6.78;;
40609;SDS011;26316;55.976;37.140;2023-09-19T01:00:40;7.80;;;6.75;;
40609;SDS011;26316;55.976;37.140;2023-09-19T01:03:06;10.02;;;6.57;;
40609;SDS011;26316;55.976;37.140;2023-09-19T01:05:33;9.27;;;6.70;;
40609;SDS011;26316;55.976;37.140;2023-09-19T01:07:59;8.55;;;7.00;;
40609;SDS011;26316;55.976;37.140;2023-09-19T01:10:24;10.00;;;6.97;;
40609;SDS011;26316;55.976;37.140;2023-09-19T01:15:59;7.20;;;6.15;;
40609;SDS011;26316;55.976;37.140;2023-09-19T01:18:50;11.07;;;6.60;;
40609;SDS011;26316;55.976;37.140;2023-09-19T01:26:56;13.00;;;7.00;;
40609;SDS011;26316;55.976;37.140;2023-09-19T01:29:44;9.18;;;6.55;;
40609;SDS011;26316;55.976;37.140;2023-09-19T01:32:14;7.13;;;6.43;;
40609;SDS011;26316;55.976;37.140;2023-09-19T01:34:49;13.30;;;6.70;;
40609;SDS011;26316;55.976;37.140;2023-09-19T01:37:23;10.35;;;6.85;;
40609;SDS011;26316;55.976;37.140;2023-09-19T01:39:53;10.45;;;6.88;;
40609;SDS011;26316;55.976;37.140;2023-09-19T01:47:34;7.35;;;6.35;;
40609;SDS011;26316;55.976;37.140;2023-09-19T01:52:30;9.37;;;6.70;;
40609;SDS011;26316;55.976;37.140;2023-09-19T01:55:02;9.73;;;6.47;;
40609;SDS011;26316;55.976;37.140;2023-09-19T01:57:34;9.00;;;6.82;;
40609;SDS011;26316;55.976;37.140;2023-09-19T02:00:05;9.10;;;6.95;;
40609;SDS011;26316;55.976;37.140;2023-09-19T02:02:40;7.90;;;6.80;;
40609;SDS011;26316;55.976;37.140;2023-09-19T02:05:08;7.10;;;6.40;;
40609;SDS011;26316;55.976;37.140;2023-09-19T02:07:33;10.32;;;7.13;;
40609;SDS011;26316;55.976;37.140;2023-09-19T02:10:03;8.60;;;6.95;;
40609;SDS011;26316;55.976;37.140;2023-09-19T02:12:33;8.10;;;6.68;;
40609;SDS011;26316;55.976;37.140;2023-09-19T02:15:04;10.43;;;7.10;;
40609;SDS011;26316;55.976;37.140;2023-09-19T02:17:33;7.55;;;6.53;;
40609;SDS011;26316;55.976;37.140;2023-09-19T02:19:59;8.23;;;6.70;;
40609;SDS011;26316;55.976;37.140;2023-09-19T02:22:28;9.75;;;7.65;;
40609;SDS011;26316;55.976;37.140;2023-09-19T02:24:56;10.35;;;7.30;;
40609;SDS011;26316;55.976;37.140;2023-09-19T02:27:24;8.77;;;6.95;;
40609;SDS011;26316;55.976;37.140;2023-09-19T02:29:51;12.60;;;7.82;;
40609;SDS011;26316;55.976;37.140;2023-09-19T02:32:17;9.05;;;6.68;;
40609;SDS011;26316;55.976;37.140;2023-09-19T02:34:44;12.50;;;6.88;;
40609;SDS011;26316;55.976;37.140;2023-09-19T02:37:10;12.10;;;6.70;;
40609;SDS011;26316;55.976;37.140;2023-09-19T02:39:39;11.77;;;7.25;;
40609;SDS011;26316;55.976;37.140;2023-09-19T02:42:05;10.43;;;7.20;;
40609;SDS011;26316;55.976;37.140;2023-09-19T02:44:31;9.07;;;7.07;;
40609;SDS011;26316;55.976;37.140;2023-09-19T02:46:58;8.68;;;6.57;;
40609;SDS011;26316;55.976;37.140;2023-09-19T02:49:24;9.80;;;6.85;;
40609;SDS011;26316;55.976;37.140;2023-09-19T02:51:50;13.27;;;6.80;;
40609;SDS011;26316;55.976;37.140;2023-09-19T02:54:17;9.38;;;6.28;;
40609;SDS011;26316;55.976;37.140;2023-09-19T02:56:43;8.68;;;6.22;;
40609;SDS011;26316;55.976;37.140;2023-09-19T02:59:09;9.93;;;6.90;;
40609;SDS011;26316;55.976;37.140;2023-09-19T03:01:36;9.18;;;6.53;;
40609;SDS011;26316;55.976;37.140;2023-09-19T03:04:04;8.98;;;6.88;;
40609;SDS011;26316;55.976;37.140;2023-09-19T03:06:32;10.13;;;7.15;;
40609;SDS011;26316;55.976;37.140;2023-09-19T03:08:58;9.77;;;7.07;;
40609;SDS011;26316;55.976;37.140;2023-09-19T03:11:25;7.18;;;6.32;;
40609;SDS011;26316;55.976;37.140;2023-09-19T03:16:21;12.88;;;6.80;;
40609;SDS011;26316;55.976;37.140;2023-09-19T03:18:49;8.07;;;6.68;;
40609;SDS011;26316;55.976;37.140;2023-09-19T03:21:16;10.32;;;7.85;;
40609;SDS011;26316;55.976;37.140;2023-09-19T03:23:43;10.00;;;6.70;;
40609;SDS011;26316;55.976;37.140;2023-09-19T03:26:12;9.20;;;6.93;;
40609;SDS011;26316;55.976;37.140;2023-09-19T03:28:40;10.55;;;6.80;;
40609;SDS011;26316;55.976;37.140;2023-09-19T03:31:07;9.52;;;6.30;;
40609;SDS011;26316;55.976;37.140;2023-09-19T03:33:35;7.25;;;5.95;;
40609;SDS011;26316;55.976;37.140;2023-09-19T03:36:02;9.80;;;6.78;;
40609;SDS011;26316;55.976;37.140;2023-09-19T03:38:31;10.37;;;6.47;;
40609;SDS011;26316;55.976;37.140;2023-09-19T03:40:58;12.93;;;7.18;;
40609;SDS011;26316;55.976;37.140;2023-09-19T03:43:24;10.10;;;7.18;;
40609;SDS011;26316;55.976;37.140;2023-09-19T03:45:50;8.52;;;6.80;;
40609;SDS011;26316;55.976;37.140;2023-09-19T03:48:17;8.15;;;6.68;;
40609;SDS011;26316;55.976;37.140;2023-09-19T03:50:43;9.75;;;6.38;;
40609;SDS011;26316;55.976;37.140;2023-09-19T03:53:09;9.10;;;6.57;;
40609;SDS011;26316;55.976;37.140;2023-09-19T03:55:35;9.65;;;7.18;;
40609;SDS011;26316;55.976;37.140;2023-09-19T03:58:01;13.70;;;7.80;;
40609;SDS011;26316;55.976;37.140;2023-09-19T04:00:27;8.95;;;7.25;;
40609;SDS011;26316;55.976;37.140;2023-09-19T04:02:55;8.43;;;6.63;;
40609;SDS011;26316;55.976;37.140;2023-09-19T04:05:24;12.10;;;7.22;;
40609;SDS011;26316;55.976;37.140;2023-09-19T04:07:49;13.40;;;7.20;;
40609;SDS011;26316;55.976;37.140;2023-09-19T04:10:15;12.68;;;7.82;;
40609;SDS011;26316;55.976;37.140;2023-09-19T04:12:54;11.82;;;6.93;;
40609;SDS011;26316;55.976;37.140;2023-09-19T04:15:22;9.80;;;7.18;;
40609;SDS011;26316;55.976;37.140;2023-09-19T04:17:50;8.25;;;7.07;;
40609;SDS011;26316;55.976;37.140;2023-09-19T04:20:17;12.48;;;7.68;;
40609;SDS011;26316;55.976;37.140;2023-09-19T04:22:45;9.57;;;7.25;;
40609;SDS011;26316;55.976;37.140;2023-09-19T04:25:11;11.50;;;6.60;;
40609;SDS011;26316;55.976;37.140;2023-09-19T04:27:37;8.75;;;7.72;;
40609;SDS011;26316;55.976;37.140;2023-09-19T04:30:04;9.85;;;7.22;;
40609;SDS011;26316;55.976;37.140;2023-09-19T04:32:35;14.32;;;7.07;;
40609;SDS011;26316;55.976;37.140;2023-09-19T04:35:03;10.10;;;7.57;;
40609;SDS011;26316;55.976;37.140;2023-09-19T04:37:31;8.38;;;7.15;;
40609;SDS011;26316;55.976;37.140;2023-09-19T04:39:58;11.15;;;7.63;;
40609;SDS011;26316;55.976;37.140;2023-09-19T04:42:23;9.52;;;6.93;;
40609;SDS011;26316;55.976;37.140;2023-09-19T04:44:50;11.43;;;7.47;;
40609;SDS011;26316;55.976;37.140;2023-09-19T04:47:19;14.80;;;7.75;;
40609;SDS011;26316;55.976;37.140;2023-09-19T04:49:46;8.30;;;6.63;;
40609;SDS011;26316;55.976;37.140;2023-09-19T04:52:12;11.80;;;8.27;;
40609;SDS011;26316;55.976;37.140;2023-09-19T04:54:40;11.30;;;6.47;;
40609;SDS011;26316;55.976;37.140;2023-09-19T04:57:06;11.55;;;7.47;;
40609;SDS011;26316;55.976;37.140;2023-09-19T04:59:32;10.60;;;6.85;;
40609;SDS011;26316;55.976;37.140;2023-09-19T05:01:58;9.77;;;7.03;;
40609;SDS011;26316;55.976;37.140;2023-09-19T05:04:24;10.88;;;7.75;;
40609;SDS011;26316;55.976;37.140;2023-09-19T05:06:50;8.90;;;7.57;;
40609;SDS011;26316;55.976;37.140;2023-09-19T05:09:16;9.38;;;7.20;;
40609;SDS011;26316;55.976;37.140;2023-09-19T05:11:45;13.07;;;8.20;;
40609;SDS011;26316;55.976;37.140;2023-09-19T05:14:11;10.70;;;7.85;;
40609;SDS011;26316;55.976;37.140;2023-09-19T05:16:37;11.40;;;8.48;;
40609;SDS011;26316;55.976;37.140;2023-09-19T05:19:03;11.73;;;8.57;;
40609;SDS011;26316;55.976;37.140;2023-09-19T05:21:30;14.65;;;8.50;;
40609;SDS011;26316;55.976;37.140;2023-09-19T05:23:56;11.95;;;7.72;;
40609;SDS011;26316;55.976;37.140;2023-09-19T05:26:22;11.25;;;8.23;;
40609;SDS011;26316;55.976;37.140;2023-09-19T05:28:48;11.00;;;7.45;;
40609;SDS011;26316;55.976;37.140;2023-09-19T05:31:13;13.70;;;9.23;;
40609;SDS011;26316;55.976;37.140;2023-09-19T05:33:41;11.45;;;8.50;;
40609;SDS011;26316;55.976;37.140;2023-09-19T05:36:07;13.85;;;8.20;;
40609;SDS011;26316;55.976;37.140;2023-09-19T05:38:36;19.13;;;8.50;;
40609;SDS011;26316;55.976;37.140;2023-09-19T05:41:02;14.00;;;8.15;;
40609;SDS011;26316;55.976;37.140;2023-09-19T05:43:28;17.60;;;7.50;;
40609;SDS011;26316;55.976;37.140;2023-09-19T05:45:53;15.13;;;7.15;;
40609;SDS011;26316;55.976;37.140;2023-09-19T05:48:22;30.10;;;8.45;;
40609;SDS011;26316;55.976;37.140;2023-09-19T05:50:48;19.38;;;7.07;;
40609;SDS011;26316;55.976;37.140;2023-09-19T05:53:16;19.25;;;8.55;;
40609;SDS011;26316;55.976;37.140;2023-09-19T05:55:42;12.25;;;8.43;;
40609;SDS011;26316;55.976;37.140;2023-09-19T05:58:08;12.07;;;7.72;;
40609;SDS011;26316;55.976;37.140;2023-09-19T06:00:35;16.33;;;7.68;;
40609;SDS011;26316;55.976;37.140;2023-09-19T06:03:01;12.10;;;8.40;;
40609;SDS011;26316;55.976;37.140;2023-09-19T06:05:27;14.82;;;9.05;;
40609;SDS011;26316;55.976;37.140;2023-09-19T06:07:56;16.70;;;8.52;;
40609;SDS011;26316;55.976;37.140;2023-09-19T06:10:26;16.75;;;8.48;;
40609;SDS011;26316;55.976;37.140;2023-09-19T06:12:53;14.15;;;8.30;;
40609;SDS011;26316;55.976;37.140;2023-09-19T06:15:21;20.38;;;9.57;;
40609;SDS011;26316;55.976;37.140;2023-09-19T06:20:20;12.38;;;8.88;;
40609;SDS011;26316;55.976;37.140;2023-09-19T06:22:47;14.00;;;8.50;;
40609;SDS011;26316;55.976;37.140;2023-09-19T06:25:14;18.70;;;9.48;;
40609;SDS011;26316;55.976;37.140;2023-09-19T06:27:51;15.00;;;10.25;;
40609;SDS011;26316;55.976;37.140;2023-09-19T06:30:19;18.95;;;10.40;;
40609;SDS011;26316;55.976;37.140;2023-09-19T06:32:47;15.55;;;10.30;;
40609;SDS011;26316;55.976;37.140;2023-09-19T06:35:14;10.30;;;7.28;;
40609;SDS011;26316;55.976;37.140;2023-09-19T06:37:41;13.98;;;9.85;;
40609;SDS011;26316;55.976;37.140;2023-09-19T06:40:11;13.60;;;8.13;;
40609;SDS011;26316;55.976;37.140;2023-09-19T06:45:08;14.30;;;10.43;;
40609;SDS011;26316;55.976;37.140;2023-09-19T06:47:37;12.23;;;10.18;;
40609;SDS011;26316;55.976;37.140;2023-09-19T06:50:02;19.27;;;11.38;;
40609;SDS011;26316;55.976;37.140;2023-09-19T06:52:30;14.70;;;10.73;;
40609;SDS011;26316;55.976;37.140;2023-09-19T06:54:56;18.08;;;11.38;;
40609;SDS011;26316;55.976;37.140;2023-09-19T06:57:22;13.35;;;8.02;;
40609;SDS011;26316;55.976;37.140;2023-09-19T06:59:47;17.90;;;10.30;;
40609;SDS011;26316;55.976;37.140;2023-09-19T07:02:13;18.48;;;11.70;;
40609;SDS011;26316;55.976;37.140;2023-09-19T07:04:39;16.52;;;10.13;;
40609;SDS011;26316;55.976;37.140;2023-09-19T07:07:06;13.18;;;10.48;;
40609;SDS011;26316;55.976;37.140;2023-09-19T07:09:34;12.60;;;8.90;;
40609;SDS011;26316;55.976;37.140;2023-09-19T07:12:00;19.77;;;12.10;;
40609;SDS011;26316;55.976;37.140;2023-09-19T07:14:26;17.27;;;11.93;;
40609;SDS011;26316;55.976;37.140;2023-09-19T07:16:52;14.40;;;10.85;;
40609;SDS011;26316;55.976;37.140;2023-09-19T07:19:18;25.27;;;12.07;;
40609;SDS011;26316;55.976;37.140;2023-09-19T07:21:43;15.25;;;9.75;;
40609;SDS011;26316;55.976;37.140;2023-09-19T07:24:12;17.60;;;11.93;;
40609;SDS011;26316;55.976;37.140;2023-09-19T07:26:38;17.45;;;12.20;;
40609;SDS011;26316;55.976;37.140;2023-09-19T07:29:05;17.08;;;12.52;;
40609;SDS011;26316;55.976;37.140;2023-09-19T07:31:32;14.95;;;13.00;;
40609;SDS011;26316;55.976;37.140;2023-09-19T07:33:57;17.98;;;13.38;;
40609;SDS011;26316;55.976;37.140;2023-09-19T07:36:23;18.52;;;12.13;;
40609;SDS011;26316;55.976;37.140;2023-09-19T07:38:50;18.50;;;12.52;;
40609;SDS011;26316;55.976;37.140;2023-09-19T07:41:15;17.38;;;12.30;;
40609;SDS011;26316;55.976;37.140;2023-09-19T07:43:41;23.25;;;13.23;;
40609;SDS011;26316;55.976;37.140;2023-09-19T07:46:08;16.63;;;13.23;;
40609;SDS011;26316;55.976;37.140;2023-09-19T07:48:35;15.10;;;12.80;;
40609;SDS011;26316;55.976;37.140;2023-09-19T07:51:05;16.33;;;12.82;;
40609;SDS011;26316;55.976;37.140;2023-09-19T07:53:33;20.63;;;13.30;;
40609;SDS011;26316;55.976;37.140;2023-09-19T07:56:06;18.50;;;13.00;;
40609;SDS011;26316;55.976;37.140;2023-09-19T07:58:33;18.08;;;12.73;;
40609;SDS011;26316;55.976;37.140;2023-09-19T08:01:06;20.20;;;13.20;;
40609;SDS011;26316;55.976;37.140;2023-09-19T08:03:32;28.23;;;12.65;;
40609;SDS011;26316;55.976;37.140;2023-09-19T08:05:59;24.30;;;13.07;;
40609;SDS011;26316;55.976;37.140;2023-09-19T08:08:26;20.25;;;12.73;;
40609;SDS011;26316;55.976;37.140;2023-09-19T08:10:55;20.77;;;13.68;;
40609;SDS011;26316;55.976;37.140;2023-09-19T08:13:25;20.13;;;12.20;;
40609;SDS011;26316;55.976;37.140;2023-09-19T08:15:51;16.52;;;12.38;;
40609;SDS011;26316;55.976;37.140;2023-09-19T08:18:20;21.77;;;13.00;;
40609;SDS011;26316;55.976;37.140;2023-09-19T08:20:50;22.13;;;13.57;;
40609;SDS011;26316;55.976;37.140;2023-09-19T08:23:16;17.50;;;11.02;;
40609;SDS011;26316;55.976;37.140;2023-09-19T08:25:43;16.83;;;10.18;;
40609;SDS011;26316;55.976;37.140;2023-09-19T08:28:09;20.70;;;12.55;;
40609;SDS011;26316;55.976;37.140;2023-09-19T08:30:37;19.98;;;12.07;;
40609;SDS011;26316;55.976;37.140;2023-09-19T08:33:05;21.58;;;12.75;;
40609;SDS011;26316;55.976;37.140;2023-09-19T08:35:31;18.05;;;12.05;;
40609;SDS011;26316;55.976;37.140;2023-09-19T08:37:57;16.85;;;12.00;;
40609;SDS011;26316;55.976;37.140;2023-09-19T08:40:25;23.67;;;12.00;;
40609;SDS011;26316;55.976;37.140;2023-09-19T08:42:54;18.58;;;12.30;;
40609;SDS011;26316;55.976;37.140;2023-09-19T08:45:21;22.48;;;12.93;;
40609;SDS011;26316;55.976;37.140;2023-09-19T08:50:41;20.48;;;13.30;;
40609;SDS011;26316;55.976;37.140;2023-09-19T08:53:10;20.13;;;12.55;;
40609;SDS011;26316;55.976;37.140;2023-09-19T08:55:37;17.63;;;10.98;;
40609;SDS011;26316;55.976;37.140;2023-09-19T08:58:06;16.48;;;12.40;;
40609;SDS011;26316;55.976;37.140;2023-09-19T09:00:35;22.03;;;11.93;;
40609;SDS011;26316;55.976;37.140;2023-09-19T09:03:02;23.48;;;12.57;;
40609;SDS011;26316;55.976;37.140;2023-09-19T09:05:29;29.65;;;12.73;;
40609;SDS011;26316;55.976;37.140;2023-09-19T09:07:55;16.10;;;11.27;;
40609;SDS011;26316;55.976;37.140;2023-09-19T09:10:22;22.35;;;10.65;;
40609;SDS011;26316;55.976;37.140;2023-09-19T09:12:50;15.50;;;11.13;;
40609;SDS011;26316;55.976;37.140;2023-09-19T09:15:18;19.48;;;11.73;;
40609;SDS011;26316;55.976;37.140;2023-09-19T09:17:47;15.30;;;10.48;;
40609;SDS011;26316;55.976;37.140;2023-09-19T09:20:14;21.45;;;13.02;;
40609;SDS011;26316;55.976;37.140;2023-09-19T09:22:49;26.52;;;12.48;;
40609;SDS011;26316;55.976;37.140;2023-09-19T09:25:16;19.20;;;13.13;;
40609;SDS011;26316;55.976;37.140;2023-09-19T09:27:46;20.20;;;12.23;;
40609;SDS011;26316;55.976;37.140;2023-09-19T09:30:34;17.98;;;12.40;;
40609;SDS011;26316;55.976;37.140;2023-09-19T09:33:08;18.73;;;11.00;;
40609;SDS011;26316;55.976;37.140;2023-09-19T09:35:37;16.77;;;11.55;;
40609;SDS011;26316;55.976;37.140;2023-09-19T09:38:26;20.17;;;10.98;;
40609;SDS011;26316;55.976;37.140;2023-09-19T09:40:54;12.35;;;9.35;;
40609;SDS011;26316;55.976;37.140;2023-09-19T09:43:38;15.73;;;11.30;;
40609;SDS011;26316;55.976;37.140;2023-09-19T09:46:06;14.02;;;10.25;;
40609;SDS011;26316;55.976;37.140;2023-09-19T09:48:56;15.95;;;11.52;;
40609;SDS011;26316;55.976;37.140;2023-09-19T09:51:42;15.88;;;10.00;;
40609;SDS011;26316;55.976;37.140;2023-09-19T09:56:57;17.65;;;8.85;;
40609;SDS011;26316;55.976;37.140;2023-09-19T09:59:52;13.77;;;8.18;;
40609;SDS011;26316;55.976;37.140;2023-09-19T10:02:20;15.32;;;9.77;;
40609;SDS011;26316;55.976;37.140;2023-09-19T10:04:58;16.15;;;8.35;;
40609;SDS011;26316;55.976;37.140;2023-09-19T10:07:39;9.52;;;8.25;;
40609;SDS011;26316;55.976;37.140;2023-09-19T10:10:28;12.38;;;8.55;;
40609;SDS011;26316;55.976;37.140;2023-09-19T10:13:02;13.02;;;7.85;;
40609;SDS011;26316;55.976;37.140;2023-09-19T10:15:31;11.93;;;7.57;;
40609;SDS011;26316;55.976;37.140;2023-09-19T10:17:59;13.18;;;7.50;;
40609;SDS011;26316;55.976;37.140;2023-09-19T10:20:26;11.38;;;7.57;;
40609;SDS011;26316;55.976;37.140;2023-09-19T10:23:05;14.20;;;8.32;;
40609;SDS011;26316;55.976;37.140;2023-09-19T10:25:40;11.90;;;8.00;;
40609;SDS011;26316;55.976;37.140;2023-09-19T10:28:08;10.43;;;8.18;;
40609;SDS011;26316;55.976;37.140;2023-09-19T10:33:13;16.25;;;10.48;;
40609;SDS011;26316;55.976;37.140;2023-09-19T10:35:44;14.50;;;9.25;;
40609;SDS011;26316;55.976;37.140;2023-09-19T10:38:12;14.20;;;8.90;;
40609;SDS011;26316;55.976;37.140;2023-09-19T10:40:40;20.05;;;9.68;;
40609;SDS011;26316;55.976;37.140;2023-09-19T10:43:13;18.98;;;11.50;;
40609;SDS011;26316;55.976;37.140;2023-09-19T10:45:43;23.27;;;11.38;;
40609;SDS011;26316;55.976;37.140;2023-09-19T10:48:10;15.25;;;11.50;;
40609;SDS011;26316;55.976;37.140;2023-09-19T10:50:44;13.90;;;8.73;;
40609;SDS011;26316;55.976;37.140;2023-09-19T10:53:14;17.05;;;10.07;;
40609;SDS011;26316;55.976;37.140;2023-09-19T10:55:47;18.30;;;8.38;;
40609;SDS011;26316;55.976;37.140;2023-09-19T10:58:29;16.83;;;8.40;;
40609;SDS011;26316;55.976;37.140;2023-09-19T11:01:07;19.70;;;11.07;;
40609;SDS011;26316;55.976;37.140;2023-09-19T11:03:42;18.65;;;9.75;;
40609;SDS011;26316;55.976;37.140;2023-09-19T11:06:09;17.05;;;9.75;;
40609;SDS011;26316;55.976;37.140;2023-09-19T11:30:41;19.98;;;10.52;;
40609;SDS011;26316;55.976;37.140;2023-09-19T11:36:01;12.63;;;9.55;;
40609;SDS011;26316;55.976;37.140;2023-09-19T11:43:49;18.40;;;8.77;;
40609;SDS011;26316;55.976;37.140;2023-09-19T11:46:17;14.68;;;8.90;;
40609;SDS011;26316;55.976;37.140;2023-09-19T11:48:48;15.15;;;8.68;;
40609;SDS011;26316;55.976;37.140;2023-09-19T11:51:22;14.20;;;9.85;;
40609;SDS011;26316;55.976;37.140;2023-09-19T11:53:52;15.30;;;9.60;;
40609;SDS011;26316;55.976;37.140;2023-09-19T11:56:23;17.27;;;9.35;;
40609;SDS011;26316;55.976;37.140;2023-09-19T11:58:51;12.93;;;9.50;;
40609;SDS011;26316;55.976;37.140;2023-09-19T12:01:29;17.65;;;9.77;;
40609;SDS011;26316;55.976;37.140;2023-09-19T12:03:57;13.88;;;7.57;;
40609;SDS011;26316;55.976;37.140;2023-09-19T12:06:28;23.85;;;8.25;;
40609;SDS011;26316;55.976;37.140;2023-09-19T12:09:01;14.30;;;8.15;;
40609;SDS011;26316;55.976;37.140;2023-09-19T12:11:32;17.58;;;8.65;;
40609;SDS011;26316;55.976;37.140;2023-09-19T12:13:59;10.00;;;7.88;;
40609;SDS011;26316;55.976;37.140;2023-09-19T12:16:29;13.98;;;9.15;;
40609;SDS011;26316;55.976;37.140;2023-09-19T12:18:56;23.42;;;8.40;;
40609;SDS011;26316;55.976;37.140;2023-09-19T12:23:58;16.35;;;8.55;;
40609;SDS011;26316;55.976;37.140;2023-09-19T12:26:26;18.88;;;8.10;;
40609;SDS011;26316;55.976;37.140;2023-09-19T12:28:54;12.55;;;7.80;;
40609;SDS011;26316;55.976;37.140;2023-09-19T12:31:21;18.25;;;8.30;;
40609;SDS011;26316;55.976;37.140;2023-09-19T12:33:52;14.73;;;8.13;;
40609;SDS011;26316;55.976;37.140;2023-09-19T12:36:20;18.38;;;8.07;;
40609;SDS011;26316;55.976;37.140;2023-09-19T12:38:54;14.23;;;8.45;;
40609;SDS011;26316;55.976;37.140;2023-09-19T12:41:20;15.88;;;8.40;;
40609;SDS011;26316;55.976;37.140;2023-09-19T12:43:47;13.65;;;7.90;;
40609;SDS011;26316;55.976;37.140;2023-09-19T12:46:13;10.05;;;7.80;;
40609;SDS011;26316;55.976;37.140;2023-09-19T12:48:40;18.15;;;8.20;;
40609;SDS011;26316;55.976;37.140;2023-09-19T12:51:10;14.77;;;8.45;;
40609;SDS011;26316;55.976;37.140;2023-09-19T12:53:45;16.03;;;8.33;;
40609;SDS011;26316;55.976;37.140;2023-09-19T12:56:16;15.55;;;7.88;;
40609;SDS011;26316;55.976;37.140;2023-09-19T13:01:20;10.27;;;6.85;;
40609;SDS011;26316;55.976;37.140;2023-09-19T13:03:46;15.20;;;8.50;;
40609;SDS011;26316;55.976;37.140;2023-09-19T13:06:48;14.85;;;7.80;;
40609;SDS011;26316;55.976;37.140;2023-09-19T13:09:15;9.88;;;7.82;;
40609;SDS011;26316;55.976;37.140;2023-09-19T13:11:42;15.68;;;7.72;;
40609;SDS011;26316;55.976;37.140;2023-09-19T13:14:22;10.80;;;7.82;;
40609;SDS011;26316;55.976;37.140;2023-09-19T13:16:53;11.73;;;7.85;;
40609;SDS011;26316;55.976;37.140;2023-09-19T13:25:07;14.70;;;7.13;;
40609;SDS011;26316;55.976;37.140;2023-09-19T13:27:38;12.23;;;7.70;;
40609;SDS011;26316;55.976;37.140;2023-09-19T13:30:04;9.50;;;6.80;;
40609;SDS011;26316;55.976;37.140;2023-09-19T13:32:31;9.93;;;7.43;;
40609;SDS011;26316;55.976;37.140;2023-09-19T13:34:58;14.23;;;7.35;;
40609;SDS011;26316;55.976;37.140;2023-09-19T13:37:24;15.70;;;8.18;;
40609;SDS011;26316;55.976;37.140;2023-09-19T13:39:49;13.40;;;7.18;;
40609;SDS011;26316;55.976;37.140;2023-09-19T13:42:15;14.68;;;7.78;;
40609;SDS011;26316;55.976;37.140;2023-09-19T13:44:42;14.50;;;7.65;;
40609;SDS011;26316;55.976;37.140;2023-09-19T13:47:08;9.23;;;7.43;;
40609;SDS011;26316;55.976;37.140;2023-09-19T13:49:35;12.88;;;6.85;;
40609;SDS011;26316;55.976;37.140;2023-09-19T13:52:02;8.20;;;6.82;;
40609;SDS011;26316;55.976;37.140;2023-09-19T13:54:32;10.82;;;6.95;;
40609;SDS011;26316;55.976;37.140;2023-09-19T13:56:58;12.73;;;7.57;;
40609;SDS011;26316;55.976;37.140;2023-09-19T13:59:24;13.20;;;7.88;;
40609;SDS011;26316;55.976;37.140;2023-09-19T14:01:50;13.98;;;7.70;;
40609;SDS011;26316;55.976;37.140;2023-09-19T14:04:19;11.25;;;7.13;;
40609;SDS011;26316;55.976;37.140;2023-09-19T14:06:46;11.80;;;7.45;;
40609;SDS011;26316;55.976;37.140;2023-09-19T14:09:12;12.30;;;7.40;;
40609;SDS011;26316;55.976;37.140;2023-09-19T14:11:39;11.48;;;7.85;;
40609;SDS011;26316;55.976;37.140;2023-09-19T14:14:05;12.93;;;7.88;;
40609;SDS011;26316;55.976;37.140;2023-09-19T14:16:31;14.55;;;8.05;;
40609;SDS011;26316;55.976;37.140;2023-09-19T14:18:57;15.15;;;7.78;;
40609;SDS011;26316;55.976;37.140;2023-09-19T14:21:23;11.05;;;7.10;;
40609;SDS011;26316;55.976;37.140;2023-09-19T14:23:49;10.88;;;7.22;;
40609;SDS011;26316;55.976;37.140;2023-09-19T14:26:15;11.43;;;7.18;;
40609;SDS011;26316;55.976;37.140;2023-09-19T14:28:43;9.30;;;7.50;;
40609;SDS011;26316;55.976;37.140;2023-09-19T14:31:10;12.77;;;7.35;;
40609;SDS011;26316;55.976;37.140;2023-09-19T14:33:36;7.90;;;6.88;;
40609;SDS011;26316;55.976;37.140;2023-09-19T14:36:03;7.78;;;6.82;;
40609;SDS011;26316;55.976;37.140;2023-09-19T14:38:33;8.52;;;5.90;;
40609;SDS011;26316;55.976;37.140;2023-09-19T14:40:59;13.10;;;6.47;;
40609;SDS011;26316;55.976;37.140;2023-09-19T14:43:26;10.45;;;6.72;;
40609;SDS011;26316;55.976;37.140;2023-09-19T14:45:54;7.72;;;6.25;;
40609;SDS011;26316;55.976;37.140;2023-09-19T14:48:20;9.15;;;6.07;;
40609;SDS011;26316;55.976;37.140;2023-09-19T14:50:48;7.70;;;6.10;;
40609;SDS011;26316;55.976;37.140;2023-09-19T14:53:16;10.07;;;6.50;;
40609;SDS011;26316;55.976;37.140;2023-09-19T14:55:41;10.63;;;6.68;;
40609;SDS011;26316;55.976;37.140;2023-09-19T14:58:10;8.05;;;6.47;;
40609;SDS011;26316;55.976;37.140;2023-09-19T15:00:37;8.85;;;6.30;;
40609;SDS011;26316;55.976;37.140;2023-09-19T15:03:04;11.52;;;5.75;;
40609;SDS011;26316;55.976;37.140;2023-09-19T15:05:30;7.88;;;5.40;;
40609;SDS011;26316;55.976;37.140;2023-09-19T15:07:55;7.35;;;5.65;;
40609;SDS011;26316;55.976;37.140;2023-09-19T15:10:22;11.88;;;5.60;;
40609;SDS011;26316;55.976;37.140;2023-09-19T15:12:48;9.57;;;5.68;;
40609;SDS011;26316;55.976;37.140;2023-09-19T15:15:14;6.97;;;5.90;;
40609;SDS011;26316;55.976;37.140;2023-09-19T15:17:40;6.45;;;5.25;;
40609;SDS011;26316;55.976;37.140;2023-09-19T15:20:06;7.32;;;5.45;;
40609;SDS011;26316;55.976;37.140;2023-09-19T15:22:33;7.88;;;5.70;;
40609;SDS011;26316;55.976;37.140;2023-09-19T15:25:00;8.70;;;5.65;;
40609;SDS011;26316;55.976;37.140;2023-09-19T15:27:31;6.05;;;5.47;;
40609;SDS011;26316;55.976;37.140;2023-09-19T15:29:58;9.30;;;5.88;;
40609;SDS011;26316;55.976;37.140;2023-09-19T15:32:26;10.93;;;5.75;;
40609;SDS011;26316;55.976;37.140;2023-09-19T15:34:52;6.20;;;5.40;;
40609;SDS011;26316;55.976;37.140;2023-09-19T15:37:17;17.88;;;6.00;;
40609;SDS011;26316;55.976;37.140;2023-09-19T15:39:45;7.53;;;5.63;;
40609;SDS011;26316;55.976;37.140;2023-09-19T15:42:11;11.40;;;5.88;;
40609;SDS011;26316;55.976;37.140;2023-09-19T15:44:37;19.92;;;5.80;;